sensor_id;sensor_type;location;lat;lon;timestamp;pressure;altitude;pressure_sealevel;temperature;humidity
19236;BME280;9752;54.270;12.470;2022-11-20T00:01:37;101213.31;;;0.48;100.00
19236;BME280;9752;54.270;12.470;2022-11-20T00:06:38;101214.38;;;0.50;100.00
19236;BME280;9752;54.270;12.470;2022-11-20T00:11:40;101210.41;;;0.61;100.00
19236;BME280;9752;54.270;12.470;2022-11-20T00:16:43;101209.66;;;0.62;100.00
19236;BME280;9752;54.270;12.470;2022-11-20T00:21:45;101207.84;;;0.61;100.00
19236;BME280;9752;54.270;12.470;2022-11-20T00:26:46;101202.19;;;0.63;100.00
19236;BME280;9752;54.270;12.470;2022-11-20T00:31:49;101206.34;;;0.78;100.00
19236;BME280;9752;54.270;12.470;2022-11-20T00:36:51;101204.16;;;0.90;100.00
19236;BME280;9752;54.270;12.470;2022-11-20T00:41:53;101204.97;;;0.98;100.00
19236;BME280;9752;54.270;12.470;2022-11-20T00:46:56;101206.38;;;1.03;100.00
19236;BME280;9752;54.270;12.470;2022-11-20T00:51:57;101213.69;;;1.00;100.00
19236;BME280;9752;54.270;12.470;2022-11-20T00:56:59;101206.53;;;1.05;100.00
19236;BME280;9752;54.270;12.470;2022-11-20T01:02:02;101214.03;;;1.28;100.00
19236;BME280;9752;54.270;12.470;2022-11-20T01:07:04;101213.84;;;1.26;100.00
19236;BME280;9752;54.270;12.470;2022-11-20T01:12:06;101212.63;;;1.23;100.00
19236;BME280;9752;54.270;12.470;2022-11-20T01:17:09;101201.56;;;1.06;100.00
19236;BME280;9752;54.270;12.470;2022-11-20T01:22:10;101185.81;;;0.86;100.00
19236;BME280;9752;54.270;12.470;2022-11-20T01:27:12;101181.50;;;0.69;100.00
19236;BME280;9752;54.270;12.470;2022-11-20T01:32:15;101171.97;;;0.59;100.00
19236;BME280;9752;54.270;12.470;2022-11-20T01:37:17;101175.09;;;0.56;100.00
19236;BME280;9752;54.270;12.470;2022-11-20T01:42:19;101176.41;;;0.53;100.00
19236;BME280;9752;54.270;12.470;2022-11-20T01:47:44;101170.66;;;0.47;100.00
19236;BME280;9752;54.270;12.470;2022-11-20T01:52:49;101169.03;;;0.31;100.00
19236;BME280;9752;54.270;12.470;2022-11-20T01:57:53;101167.31;;;0.23;100.00
19236;BME280;9752;54.270;12.470;2022-11-20T02:02:58;101164.09;;;0.17;100.00
19236;BME280;9752;54.270;12.470;2022-11-20T02:08:02;101172.31;;;0.14;100.00
19236;BME280;9752;54.270;12.470;2022-11-20T02:13:05;101164.78;;;0.23;100.00
19236;BME280;9752;54.270;12.470;2022-11-20T02:18:26;101166.31;;;0.46;100.00
19236;BME280;9752;54.270;12.470;2022-11-20T02:23:32;101157.59;;;0.68;100.00
19236;BME280;9752;54.270;12.470;2022-11-20T02:28:35;101154.78;;;0.74;100.00
19236;BME280;9752;54.270;12.470;2022-11-20T02:33:37;101152.66;;;0.70;100.00
19236;BME280;9752;54.270;12.470;2022-11-20T02:38:39;101149.38;;;0.71;100.00
19236;BME280;9752;54.270;12.470;2022-11-20T02:43:43;101143.63;;;0.65;100.00
19236;BME280;9752;54.270;12.470;2022-11-20T02:48:44;101149.19;;;0.69;100.00
19236;BME280;9752;54.270;12.470;2022-11-20T02:53:46;101148.56;;;0.63;100.00
19236;BME280;9752;54.270;12.470;2022-11-20T02:58:49;101146.44;;;0.59;100.00
19236;BME280;9752;54.270;12.470;2022-11-20T03:03:52;101146.13;;;0.56;100.00
19236;BME280;9752;54.270;12.470;2022-11-20T03:08:55;101149.50;;;0.48;100.00
19236;BME280;9752;54.270;12.470;2022-11-20T03:14:01;101134.19;;;0.48;100.00
19236;BME280;9752;54.270;12.470;2022-11-20T03:19:03;101125.16;;;0.43;100.00
19236;BME280;9752;54.270;12.470;2022-11-20T03:24:05;101123.91;;;0.39;100.00
19236;BME280;9752;54.270;12.470;2022-11-20T03:29:08;101123.44;;;0.34;100.00
19236;BME280;9752;54.270;12.470;2022-11-20T03:34:11;101126.00;;;0.34;100.00
19236;BME280;9752;54.270;12.470;2022-11-20T03:39:13;101112.47;;;0.35;100.00
19236;BME280;9752;54.270;12.470;2022-11-20T03:44:16;101115.56;;;0.49;100.00
19236;BME280;9752;54.270;12.470;2022-11-20T03:49:19;101113.81;;;0.56;100.00
19236;BME280;9752;54.270;12.470;2022-11-20T03:54:20;101120.91;;;0.59;100.00
19236;BME280;9752;54.270;12.470;2022-11-20T03:59:23;101119.25;;;0.60;100.00
19236;BME280;9752;54.270;12.470;2022-11-20T04:04:25;101114.31;;;0.61;100.00
19236;BME280;9752;54.270;12.470;2022-11-20T04:09:27;101116.22;;;0.55;100.00
19236;BME280;9752;54.270;12.470;2022-11-20T04:14:30;101108.09;;;0.50;100.00
19236;BME280;9752;54.270;12.470;2022-11-20T04:19:31;101114.50;;;0.47;100.00
19236;BME280;9752;54.270;12.470;2022-11-20T04:24:33;101101.59;;;0.45;100.00
19236;BME280;9752;54.270;12.470;2022-11-20T04:29:36;101097.94;;;0.34;100.00
19236;BME280;9752;54.270;12.470;2022-11-20T04:34:38;101103.28;;;0.29;100.00
19236;BME280;9752;54.270;12.470;2022-11-20T04:39:40;101091.69;;;0.24;100.00
19236;BME280;9752;54.270;12.470;2022-11-20T04:44:43;101086.91;;;0.27;100.00
19236;BME280;9752;54.270;12.470;2022-11-20T04:49:44;101079.81;;;0.24;100.00
19236;BME280;9752;54.270;12.470;2022-11-20T04:54:46;101076.13;;;0.29;100.00
19236;BME280;9752;54.270;12.470;2022-11-20T04:59:49;101079.72;;;0.31;100.00
19236;BME280;9752;54.270;12.470;2022-11-20T05:04:50;101088.53;;;0.26;100.00
19236;BME280;9752;54.270;12.470;2022-11-20T05:09:52;101089.59;;;0.28;100.00
19236;BME280;9752;54.270;12.470;2022-11-20T05:14:55;101089.94;;;0.31;100.00
19236;BME280;9752;54.270;12.470;2022-11-20T05:19:57;101086.00;;;0.26;100.00
19236;BME280;9752;54.270;12.470;2022-11-20T05:24:58;101083.13;;;0.23;100.00
19236;BME280;9752;54.270;12.470;2022-11-20T05:30:02;101087.47;;;0.24;100.00
19236;BME280;9752;54.270;12.470;2022-11-20T05:35:04;101080.66;;;0.16;100.00
19236;BME280;9752;54.270;12.470;2022-11-20T05:40:07;101086.13;;;0.03;100.00
19236;BME280;9752;54.270;12.470;2022-11-20T05:45:11;101083.59;;;-0.13;100.00
19236;BME280;9752;54.270;12.470;2022-11-20T05:50:13;101080.78;;;-0.23;100.00
19236;BME280;9752;54.270;12.470;2022-11-20T05:55:15;101076.94;;;-0.35;100.00
19236;BME280;9752;54.270;12.470;2022-11-20T06:00:18;101079.13;;;-0.54;100.00
19236;BME280;9752;54.270;12.470;2022-11-20T06:05:20;101082.31;;;-0.64;100.00
19236;BME280;9752;54.270;12.470;2022-11-20T06:10:21;101087.13;;;-0.74;100.00
19236;BME280;9752;54.270;12.470;2022-11-20T06:15:24;101078.34;;;-0.85;100.00
19236;BME280;9752;54.270;12.470;2022-11-20T06:20:26;101083.31;;;-0.94;100.00
19236;BME280;9752;54.270;12.470;2022-11-20T06:25:27;101085.38;;;-0.99;100.00
19236;BME280;9752;54.270;12.470;2022-11-20T06:30:31;101084.44;;;-0.99;100.00
19236;BME280;9752;54.270;12.470;2022-11-20T06:35:32;101091.75;;;-1.02;100.00
19236;BME280;9752;54.270;12.470;2022-11-20T06:40:34;101087.22;;;-1.05;100.00
19236;BME280;9752;54.270;12.470;2022-11-20T06:45:37;101093.16;;;-0.97;100.00
19236;BME280;9752;54.270;12.470;2022-11-20T06:50:39;101096.66;;;-0.81;100.00
19236;BME280;9752;54.270;12.470;2022-11-20T06:55:42;101103.13;;;-0.68;100.00
19236;BME280;9752;54.270;12.470;2022-11-20T07:00:46;101107.81;;;-0.48;100.00
19236;BME280;9752;54.270;12.470;2022-11-20T07:05:48;101121.25;;;-0.26;100.00
19236;BME280;9752;54.270;12.470;2022-11-20T07:10:49;101113.69;;;-0.02;100.00
19236;BME280;9752;54.270;12.470;2022-11-20T07:15:52;101119.34;;;0.12;100.00
19236;BME280;9752;54.270;12.470;2022-11-20T07:20:54;101126.75;;;0.17;100.00
19236;BME280;9752;54.270;12.470;2022-11-20T07:25:55;101122.28;;;0.24;100.00
19236;BME280;9752;54.270;12.470;2022-11-20T07:30:58;101125.91;;;0.26;100.00
19236;BME280;9752;54.270;12.470;2022-11-20T07:36:01;101117.28;;;0.32;100.00
19236;BME280;9752;54.270;12.470;2022-11-20T07:41:02;101112.31;;;0.34;100.00
19236;BME280;9752;54.270;12.470;2022-11-20T07:46:05;101118.72;;;0.30;100.00
19236;BME280;9752;54.270;12.470;2022-11-20T07:51:07;101111.41;;;0.33;100.00
19236;BME280;9752;54.270;12.470;2022-11-20T07:56:09;101106.91;;;0.31;100.00
19236;BME280;9752;54.270;12.470;2022-11-20T08:01:12;101102.59;;;0.38;100.00
19236;BME280;9752;54.270;12.470;2022-11-20T08:06:13;101101.97;;;0.32;100.00
19236;BME280;9752;54.270;12.470;2022-11-20T08:11:15;101102.59;;;0.38;100.00
19236;BME280;9752;54.270;12.470;2022-11-20T08:16:36;101112.81;;;0.38;100.00
19236;BME280;9752;54.270;12.470;2022-11-20T08:21:38;101115.06;;;0.60;100.00
19236;BME280;9752;54.270;12.470;2022-11-20T08:26:40;101116.44;;;0.41;100.00
19236;BME280;9752;54.270;12.470;2022-11-20T08:31:43;101118.47;;;0.52;100.00
19236;BME280;9752;54.270;12.470;2022-11-20T08:36:45;101134.59;;;0.84;100.00
19236;BME280;9752;54.270;12.470;2022-11-20T08:41:47;101143.47;;;1.12;100.00
19236;BME280;9752;54.270;12.470;2022-11-20T08:46:50;101141.91;;;1.39;100.00
19236;BME280;9752;54.270;12.470;2022-11-20T08:51:52;101133.19;;;1.37;100.00
19236;BME280;9752;54.270;12.470;2022-11-20T08:56:55;101139.25;;;1.46;100.00
19236;BME280;9752;54.270;12.470;2022-11-20T09:01:58;101133.84;;;1.61;100.00
19236;BME280;9752;54.270;12.470;2022-11-20T09:07:00;101136.16;;;1.75;100.00
19236;BME280;9752;54.270;12.470;2022-11-20T09:12:01;101132.75;;;1.92;100.00
19236;BME280;9752;54.270;12.470;2022-11-20T09:17:04;101117.50;;;1.93;100.00
19236;BME280;9752;54.270;12.470;2022-11-20T09:22:08;101116.78;;;1.94;100.00
19236;BME280;9752;54.270;12.470;2022-11-20T09:27:10;101115.75;;;2.45;100.00
19236;BME280;9752;54.270;12.470;2022-11-20T09:32:13;101105.78;;;3.10;100.00
19236;BME280;9752;54.270;12.470;2022-11-20T09:37:14;101102.88;;;2.71;100.00
19236;BME280;9752;54.270;12.470;2022-11-20T09:42:36;101088.19;;;2.51;100.00
19236;BME280;9752;54.270;12.470;2022-11-20T09:48:04;101067.56;;;2.23;100.00
19236;BME280;9752;54.270;12.470;2022-11-20T09:53:18;101053.88;;;1.79;100.00
19236;BME280;9752;54.270;12.470;2022-11-20T09:58:27;101045.09;;;1.42;100.00
19236;BME280;9752;54.270;12.470;2022-11-20T10:03:39;101031.53;;;1.26;100.00
19236;BME280;9752;54.270;12.470;2022-11-20T10:08:48;101032.28;;;1.25;100.00
19236;BME280;9752;54.270;12.470;2022-11-20T10:13:58;101028.53;;;1.30;100.00
19236;BME280;9752;54.270;12.470;2022-11-20T10:19:15;101033.03;;;1.24;100.00
19236;BME280;9752;54.270;12.470;2022-11-20T10:24:43;101031.06;;;1.21;100.00
19236;BME280;9752;54.270;12.470;2022-11-20T10:29:54;101033.38;;;1.35;100.00
19236;BME280;9752;54.270;12.470;2022-11-20T10:35:05;101032.16;;;1.32;100.00
19236;BME280;9752;54.270;12.470;2022-11-20T10:40:20;101026.88;;;1.30;100.00
19236;BME280;9752;54.270;12.470;2022-11-20T10:45:34;101030.66;;;1.34;100.00
19236;BME280;9752;54.270;12.470;2022-11-20T10:50:48;101033.25;;;1.78;100.00
19236;BME280;9752;54.270;12.470;2022-11-20T10:55:55;101034.19;;;2.67;100.00
19236;BME280;9752;54.270;12.470;2022-11-20T11:01:03;101031.06;;;2.97;100.00
19236;BME280;9752;54.270;12.470;2022-11-20T11:06:10;101019.09;;;3.15;100.00
19236;BME280;9752;54.270;12.470;2022-11-20T11:11:22;101002.44;;;3.29;100.00
19236;BME280;9752;54.270;12.470;2022-11-20T11:16:26;100977.00;;;2.94;100.00
19236;BME280;9752;54.270;12.470;2022-11-20T11:21:29;100969.31;;;2.94;100.00
19236;BME280;9752;54.270;12.470;2022-11-20T11:26:31;100963.00;;;3.37;100.00
19236;BME280;9752;54.270;12.470;2022-11-20T11:31:34;100951.16;;;3.01;100.00
19236;BME280;9752;54.270;12.470;2022-11-20T11:36:37;100939.78;;;3.36;100.00
19236;BME280;9752;54.270;12.470;2022-11-20T11:41:40;100943.66;;;3.22;100.00
19236;BME280;9752;54.270;12.470;2022-11-20T11:46:49;100934.72;;;2.80;100.00
19236;BME280;9752;54.270;12.470;2022-11-20T11:52:08;100933.28;;;2.65;100.00
19236;BME280;9752;54.270;12.470;2022-11-20T11:57:16;100929.03;;;2.74;100.00
19236;BME280;9752;54.270;12.470;2022-11-20T12:02:34;100915.03;;;2.70;100.00
19236;BME280;9752;54.270;12.470;2022-11-20T12:07:41;100912.88;;;2.47;100.00
19236;BME280;9752;54.270;12.470;2022-11-20T12:12:46;100902.75;;;2.12;100.00
19236;BME280;9752;54.270;12.470;2022-11-20T12:17:49;100899.50;;;1.87;100.00
19236;BME280;9752;54.270;12.470;2022-11-20T12:22:56;100895.75;;;1.84;100.00
19236;BME280;9752;54.270;12.470;2022-11-20T12:33:55;100886.75;;;1.70;100.00
19236;BME280;9752;54.270;12.470;2022-11-20T12:39:21;100880.91;;;1.53;100.00
19236;BME280;9752;54.270;12.470;2022-11-20T12:44:57;100885.75;;;1.33;100.00
19236;BME280;9752;54.270;12.470;2022-11-20T12:50:15;100888.75;;;1.46;100.00
19236;BME280;9752;54.270;12.470;2022-11-20T12:55:44;100893.13;;;1.39;100.00
19236;BME280;9752;54.270;12.470;2022-11-20T13:00:54;100897.31;;;1.38;100.00
19236;BME280;9752;54.270;12.470;2022-11-20T13:06:05;100898.34;;;1.66;100.00
19236;BME280;9752;54.270;12.470;2022-11-20T13:11:18;100904.78;;;1.89;100.00
19236;BME280;9752;54.270;12.470;2022-11-20T13:16:25;100903.00;;;1.70;100.00
19236;BME280;9752;54.270;12.470;2022-11-20T13:21:36;100899.41;;;1.68;100.00
19236;BME280;9752;54.270;12.470;2022-11-20T13:26:40;100895.28;;;1.97;100.00
19236;BME280;9752;54.270;12.470;2022-11-20T13:31:44;100891.72;;;1.77;100.00
19236;BME280;9752;54.270;12.470;2022-11-20T13:36:51;100883.91;;;1.67;100.00
19236;BME280;9752;54.270;12.470;2022-11-20T13:41:57;100873.06;;;1.78;100.00
19236;BME280;9752;54.270;12.470;2022-11-20T13:46:59;100863.38;;;1.93;100.00
19236;BME280;9752;54.270;12.470;2022-11-20T13:52:28;100859.25;;;1.59;100.00
19236;BME280;9752;54.270;12.470;2022-11-20T13:57:56;100861.69;;;1.22;100.00
19236;BME280;9752;54.270;12.470;2022-11-20T14:03:09;100861.38;;;1.02;100.00
19236;BME280;9752;54.270;12.470;2022-11-20T14:08:24;100867.97;;;0.91;100.00
19236;BME280;9752;54.270;12.470;2022-11-20T14:13:29;100863.59;;;0.81;100.00
19236;BME280;9752;54.270;12.470;2022-11-20T14:18:30;100858.66;;;0.83;100.00
19236;BME280;9752;54.270;12.470;2022-11-20T14:23:32;100861.66;;;0.87;100.00
19236;BME280;9752;54.270;12.470;2022-11-20T14:28:35;100865.00;;;1.12;100.00
19236;BME280;9752;54.270;12.470;2022-11-20T14:33:37;100863.97;;;1.10;100.00
19236;BME280;9752;54.270;12.470;2022-11-20T14:38:39;100874.31;;;1.12;100.00
19236;BME280;9752;54.270;12.470;2022-11-20T14:43:47;100874.31;;;1.03;100.00
19236;BME280;9752;54.270;12.470;2022-11-20T14:48:51;100869.94;;;1.02;100.00
19236;BME280;9752;54.270;12.470;2022-11-20T14:53:53;100860.59;;;0.85;100.00
19236;BME280;9752;54.270;12.470;2022-11-20T14:58:57;100857.91;;;0.84;100.00
19236;BME280;9752;54.270;12.470;2022-11-20T15:04:01;100864.22;;;0.87;100.00
19236;BME280;9752;54.270;12.470;2022-11-20T15:09:03;100857.13;;;0.67;100.00
19236;BME280;9752;54.270;12.470;2022-11-20T15:14:08;100844.41;;;0.34;100.00
19236;BME280;9752;54.270;12.470;2022-11-20T15:19:16;100833.72;;;0.21;100.00
19236;BME280;9752;54.270;12.470;2022-11-20T15:24:19;100823.19;;;0.09;100.00
19236;BME280;9752;54.270;12.470;2022-11-20T15:29:23;100818.75;;;-0.10;100.00
19236;BME280;9752;54.270;12.470;2022-11-20T15:34:27;100806.16;;;-0.42;100.00
19236;BME280;9752;54.270;12.470;2022-11-20T15:39:28;100805.81;;;-0.69;100.00
19236;BME280;9752;54.270;12.470;2022-11-20T15:44:31;100805.72;;;-1.03;100.00
19236;BME280;9752;54.270;12.470;2022-11-20T15:49:35;100808.22;;;-1.11;100.00
19236;BME280;9752;54.270;12.470;2022-11-20T15:54:37;100808.94;;;-1.12;100.00
19236;BME280;9752;54.270;12.470;2022-11-20T15:59:40;100816.75;;;-1.27;100.00
19236;BME280;9752;54.270;12.470;2022-11-20T16:04:42;100805.56;;;-1.20;100.00
19236;BME280;9752;54.270;12.470;2022-11-20T16:09:43;100797.03;;;-1.21;100.00
19236;BME280;9752;54.270;12.470;2022-11-20T16:14:46;100792.69;;;-1.06;100.00
19236;BME280;9752;54.270;12.470;2022-11-20T16:20:10;100788.41;;;-0.98;100.00
19236;BME280;9752;54.270;12.470;2022-11-20T16:25:12;100800.22;;;-0.99;100.00
19236;BME280;9752;54.270;12.470;2022-11-20T16:30:15;100807.97;;;-1.06;100.00
19236;BME280;9752;54.270;12.470;2022-11-20T16:35:17;100808.75;;;-0.98;100.00
19236;BME280;9752;54.270;12.470;2022-11-20T16:40:19;100809.81;;;-0.96;100.00
19236;BME280;9752;54.270;12.470;2022-11-20T16:45:22;100817.88;;;-1.00;100.00
19236;BME280;9752;54.270;12.470;2022-11-20T16:50:24;100831.84;;;-0.96;100.00
19236;BME280;9752;54.270;12.470;2022-11-20T16:55:25;100837.16;;;-0.86;100.00
19236;BME280;9752;54.270;12.470;2022-11-20T17:00:28;100832.28;;;-0.76;100.00
19236;BME280;9752;54.270;12.470;2022-11-20T17:05:30;100838.59;;;-0.72;100.00
19236;BME280;9752;54.270;12.470;2022-11-20T17:10:32;100833.22;;;-0.75;100.00
19236;BME280;9752;54.270;12.470;2022-11-20T17:15:35;100830.53;;;-0.93;100.00
19236;BME280;9752;54.270;12.470;2022-11-20T17:20:37;100825.84;;;-1.13;100.00
19236;BME280;9752;54.270;12.470;2022-11-20T17:25:39;100820.78;;;-1.29;100.00
19236;BME280;9752;54.270;12.470;2022-11-20T17:30:42;100811.16;;;-1.47;100.00
19236;BME280;9752;54.270;12.470;2022-11-20T17:35:44;100796.97;;;-1.61;100.00
19236;BME280;9752;54.270;12.470;2022-11-20T17:40:46;100800.28;;;-1.85;100.00
19236;BME280;9752;54.270;12.470;2022-11-20T17:45:49;100803.47;;;-1.95;100.00
19236;BME280;9752;54.270;12.470;2022-11-20T17:50:51;100786.63;;;-2.02;100.00
19236;BME280;9752;54.270;12.470;2022-11-20T17:55:56;100794.78;;;-2.20;100.00
19236;BME280;9752;54.270;12.470;2022-11-20T18:01:22;100781.91;;;-2.45;100.00
19236;BME280;9752;54.270;12.470;2022-11-20T18:06:25;100783.13;;;-2.64;100.00
19236;BME280;9752;54.270;12.470;2022-11-20T18:11:28;100785.69;;;-2.64;100.00
19236;BME280;9752;54.270;12.470;2022-11-20T18:16:37;100786.00;;;-2.54;100.00
19236;BME280;9752;54.270;12.470;2022-11-20T18:21:42;100784.84;;;-2.49;100.00
19236;BME280;9752;54.270;12.470;2022-11-20T18:26:44;100785.59;;;-2.50;100.00
19236;BME280;9752;54.270;12.470;2022-11-20T18:31:47;100794.06;;;-2.42;100.00
19236;BME280;9752;54.270;12.470;2022-11-20T18:36:48;100793.00;;;-2.21;100.00
19236;BME280;9752;54.270;12.470;2022-11-20T18:41:50;100803.75;;;-2.08;100.00
19236;BME280;9752;54.270;12.470;2022-11-20T18:47:12;100794.69;;;-1.90;100.00
19236;BME280;9752;54.270;12.470;2022-11-20T18:52:15;100802.84;;;-1.85;100.00
19236;BME280;9752;54.270;12.470;2022-11-20T18:57:17;100795.38;;;-1.84;100.00
19236;BME280;9752;54.270;12.470;2022-11-20T19:02:21;100804.91;;;-1.74;100.00
19236;BME280;9752;54.270;12.470;2022-11-20T19:07:23;100797.22;;;-1.67;100.00
19236;BME280;9752;54.270;12.470;2022-11-20T19:12:24;100807.22;;;-1.52;100.00
19236;BME280;9752;54.270;12.470;2022-11-20T19:17:27;100802.41;;;-1.42;100.00
19236;BME280;9752;54.270;12.470;2022-11-20T19:22:29;100805.34;;;-1.30;100.00
19236;BME280;9752;54.270;12.470;2022-11-20T19:27:31;100799.00;;;-1.18;100.00
19236;BME280;9752;54.270;12.470;2022-11-20T19:32:34;100801.00;;;-1.15;100.00
19236;BME280;9752;54.270;12.470;2022-11-20T19:37:35;100804.91;;;-1.10;100.00
19236;BME280;9752;54.270;12.470;2022-11-20T19:42:38;100800.22;;;-0.99;100.00
19236;BME280;9752;54.270;12.470;2022-11-20T19:47:41;100810.63;;;-0.88;100.00
19236;BME280;9752;54.270;12.470;2022-11-20T19:52:42;100807.31;;;-0.71;100.00
19236;BME280;9752;54.270;12.470;2022-11-20T19:57:44;100801.97;;;-0.66;100.00
19236;BME280;9752;54.270;12.470;2022-11-20T20:02:47;100813.66;;;-0.59;100.00
19236;BME280;9752;54.270;12.470;2022-11-20T20:07:49;100820.59;;;-0.58;100.00
19236;BME280;9752;54.270;12.470;2022-11-20T20:12:50;100823.22;;;-0.65;100.00
19236;BME280;9752;54.270;12.470;2022-11-20T20:17:54;100820.25;;;-0.61;100.00
19236;BME280;9752;54.270;12.470;2022-11-20T20:22:56;100829.28;;;-0.56;100.00
19236;BME280;9752;54.270;12.470;2022-11-20T20:27:57;100822.44;;;-0.48;100.00
19236;BME280;9752;54.270;12.470;2022-11-20T20:33:00;100829.66;;;-0.44;100.00
19236;BME280;9752;54.270;12.470;2022-11-20T20:38:02;100825.63;;;-0.42;100.00
19236;BME280;9752;54.270;12.470;2022-11-20T20:43:04;100830.44;;;-0.36;100.00
19236;BME280;9752;54.270;12.470;2022-11-20T20:48:07;100832.69;;;-0.40;100.00
19236;BME280;9752;54.270;12.470;2022-11-20T20:53:09;100833.59;;;-0.39;100.00
19236;BME280;9752;54.270;12.470;2022-11-20T20:58:10;100819.09;;;-0.56;100.00
19236;BME280;9752;54.270;12.470;2022-11-20T21:03:13;100823.56;;;-0.62;100.00
19236;BME280;9752;54.270;12.470;2022-11-20T21:08:15;100825.94;;;-0.64;100.00
19236;BME280;9752;54.270;12.470;2022-11-20T21:13:24;100822.34;;;-0.66;100.00
19236;BME280;9752;54.270;12.470;2022-11-20T21:18:27;100818.13;;;-0.65;100.00
19236;BME280;9752;54.270;12.470;2022-11-20T21:23:30;100823.41;;;-0.64;100.00
19236;BME280;9752;54.270;12.470;2022-11-20T21:28:33;100815.50;;;-0.58;100.00
19236;BME280;9752;54.270;12.470;2022-11-20T21:33:40;100803.19;;;-0.62;100.00
19236;BME280;9752;54.270;12.470;2022-11-20T21:38:42;100792.56;;;-0.58;100.00
19236;BME280;9752;54.270;12.470;2022-11-20T21:43:44;100788.19;;;-0.59;100.00
19236;BME280;9752;54.270;12.470;2022-11-20T21:48:47;100776.22;;;-0.60;100.00
19236;BME280;9752;54.270;12.470;2022-11-20T21:53:50;100777.72;;;-0.62;100.00
19236;BME280;9752;54.270;12.470;2022-11-20T21:58:53;100771.66;;;-0.71;100.00
19236;BME280;9752;54.270;12.470;2022-11-20T22:03:57;100762.97;;;-0.73;100.00
19236;BME280;9752;54.270;12.470;2022-11-20T22:08:59;100747.88;;;-0.88;100.00
19236;BME280;9752;54.270;12.470;2022-11-20T22:14:01;100737.31;;;-1.00;100.00
19236;BME280;9752;54.270;12.470;2022-11-20T22:19:22;100732.47;;;-1.05;100.00
19236;BME280;9752;54.270;12.470;2022-11-20T22:24:24;100735.13;;;-1.12;100.00
19236;BME280;9752;54.270;12.470;2022-11-20T22:29:26;100727.28;;;-1.23;100.00
19236;BME280;9752;54.270;12.470;2022-11-20T22:34:29;100722.44;;;-1.28;100.00
19236;BME280;9752;54.270;12.470;2022-11-20T22:39:30;100715.78;;;-1.35;100.00
19236;BME280;9752;54.270;12.470;2022-11-20T22:44:32;100707.78;;;-1.47;100.00
19236;BME280;9752;54.270;12.470;2022-11-20T22:49:35;100710.81;;;-1.58;100.00
19236;BME280;9752;54.270;12.470;2022-11-20T22:54:37;100701.31;;;-1.68;100.00
19236;BME280;9752;54.270;12.470;2022-11-20T22:59:38;100702.56;;;-1.80;100.00
19236;BME280;9752;54.270;12.470;2022-11-20T23:04:42;100702.34;;;-1.98;100.00
19236;BME280;9752;54.270;12.470;2022-11-20T23:09:43;100692.28;;;-2.05;100.00
19236;BME280;9752;54.270;12.470;2022-11-20T23:14:45;100689.78;;;-2.28;100.00
19236;BME280;9752;54.270;12.470;2022-11-20T23:19:48;100691.06;;;-2.47;100.00
19236;BME280;9752;54.270;12.470;2022-11-20T23:24:50;100688.56;;;-2.78;100.00
19236;BME280;9752;54.270;12.470;2022-11-20T23:29:51;100681.84;;;-3.00;100.00
19236;BME280;9752;54.270;12.470;2022-11-20T23:34:54;100678.50;;;-3.15;100.00
19236;BME280;9752;54.270;12.470;2022-11-20T23:39:56;100675.31;;;-3.28;100.00
19236;BME280;9752;54.270;12.470;2022-11-20T23:44:58;100672.00;;;-3.43;100.00
19236;BME280;9752;54.270;12.470;2022-11-20T23:50:01;100667.22;;;-3.33;100.00
19236;BME280;9752;54.270;12.470;2022-11-20T23:55:03;100670.38;;;-3.20;100.00
